• Join FlightAware (Why Join?)
  • Login
  • US Flag 
05:06AM EDT


 

Airport Tracker/Info


-or-


 

Live Flight TrackerFlight Track Log ✈ ELY351 ✈ 30-Sep-2013 ✈ LLBG / TLV - EDDB / SXF

Flight Track Log - Related Links

Times and Time Zones

All times are in EDT time to prevent confusion due to time zone crossing. See the ELY351 flight status page for this flight to view local times or setup timezone preferences in your user account.

Time Position Orientation Groundspeed Altitude Reporting Facility
EDT Latitude Longitude Course Direction KTS MPH feet Rate Location/Type
11:52PM 31.9960 34.7780 52° Northeast 197 227 3,500  Level FlightAware
11:53PM 32.0000 34.7490 279° West 217 250 4,100 1,320 Climbing FlightAware
11:53PM 32.0020 34.7410 286° West 235 270 4,200 960 Climbing FlightAware
11:53PM 32.0030 34.7370 286° West 239 275 4,300 1,980 Climbing FlightAware
11:53PM 32.0080 34.7180 287° West 254 292 4,800 1,980 Climbing FlightAware
11:53PM 32.0090 34.7110 280° West 259 298 4,900 960 Climbing FlightAware
11:53PM 32.0110 34.7050 291° West 270 311 5,000 1,980 Climbing FlightAware
11:54PM 32.0140 34.6930 286° West 272 313 5,300 3,000 Climbing FlightAware
11:54PM 32.0170 34.6790 284° West 278 320 5,800 2,580 Climbing FlightAware
11:54PM 32.0180 34.6740 283° West 278 320 6,000 1,800 Climbing FlightAware
11:54PM 32.0260 34.6370 284° West 303 349 6,600 780 Climbing FlightAware
11:55PM 32.0310 34.5930 278° West 312 359 6,700 2,340 Climbing FlightAware
11:57PM 32.2023 34.4727 329° Northwest  Level Estimated
11:58PM 32.2983 34.4051 329° Northwest  Level Estimated
11:59PM 32.3942 34.3373 329° Northwest  Level Estimated
11:59PM 32.1100 34.1010 329° Northwest 386 444 17,900  Level FlightAware
11:59PM 32.1400 34.0390 300° West 393 452 19,000 1,860 Climbing FlightAware
12:00AM 32.1730 33.9700 299° West 398 458 20,100 1,860 Climbing FlightAware
12:01AM 32.2030 33.9080 300° West 401 461 21,200 1,920 Climbing FlightAware
12:01AM 32.2340 33.8400 298° West 405 466 22,300 1,800 Climbing FlightAware
12:02AM 32.2670 33.7710 300° West 408 470 23,300 1,680 Climbing FlightAware
12:02AM 32.3000 33.7020 300° West 410 472 24,300 1,620 Climbing FlightAware
12:03AM 32.3380 33.6220 299° West 414 476 25,400 1,560 Climbing FlightAware
12:04AM 32.3690 33.5560 299° West 416 479 26,200 1,320 Climbing FlightAware
12:04AM 32.4070 33.4750 299° West 420 483 27,100 1,200 Climbing FlightAware
12:05AM 32.4330 33.4180 298° West 424 488 27,600 1,080 Climbing FlightAware
12:05AM 32.4730 33.3330 299° West 429 494 28,400 1,080 Climbing FlightAware
12:06AM 32.5050 33.2660 300° West 431 496 29,000 1,380 Climbing FlightAware
12:07AM 32.5400 33.1900 299° West 426 490 30,000 1,560 Climbing FlightAware
12:07AM 32.5710 33.1250 300° West 423 487 30,800 1,380 Climbing FlightAware
12:08AM 32.6050 33.0510 299° West 420 483 31,600 1,260 Climbing FlightAware
12:08AM 32.6350 32.9860 299° West 413 475 32,300 900 Climbing FlightAware
12:09AM 32.6670 32.9140 298° West 411 473 32,700 1,080 Climbing FlightAware
12:10AM 32.6970 32.8530 300° West 410 472 33,600 780 Climbing FlightAware
12:10AM 32.7240 32.7900 297° West 410 472 33,600 300 Level FlightAware
12:11AM 32.7630 32.7080 300° West 406 467 34,000 300 Climbing FlightAware
12:11AM 32.7960 32.6370 299° West 406 467 34,000  Level FlightAware
12:12AM 32.8310 32.5620 299° West 407 468 34,000  Level FlightAware
12:13AM 32.8700 32.4850 301° West 414 476 34,000  Level FlightAware
12:13AM 32.9090 32.4320 311° West 417 480 34,000  Level FlightAware
12:14AM 32.9590 32.3720 315° West 418 481 34,000  Level FlightAware
12:14AM 33.0060 32.3160 315° West 417 480 34,000  Level FlightAware
12:15AM 33.0550 32.2550 314° West 421 484 34,000  Level FlightAware
12:15AM 33.1030 32.1970 315° West 422 486 34,000  Level FlightAware
12:16AM 33.1530 32.1360 314° West 422 486 34,000  Level FlightAware
12:17AM 33.1920 32.0880 314° West 422 486 34,000  Level FlightAware
12:17AM 33.2470 32.0200 314° West 422 486 34,000  Level FlightAware
12:18AM 33.2890 31.9690 315° West 417 480 34,000  Level FlightAware
12:18AM 33.3380 31.9100 315° West 422 486 34,000  Level FlightAware
12:19AM 33.3860 31.8510 314° West 418 481 34,000  Level FlightAware
12:20AM 33.4420 31.7820 314° West 418 481 34,000  Level FlightAware
12:20AM 33.4810 31.7330 314° West 418 481 34,000  Level FlightAware
12:21AM 33.5310 31.6710 314° West 420 483 34,000  Level FlightAware
12:21AM 33.5760 31.6150 314° West 420 483 34,000  Level FlightAware
12:22AM 33.6260 31.5540 315° West 422 486 34,000  Level FlightAware
12:22AM 33.6750 31.4940 314° West 423 487 34,000  Level FlightAware
12:23AM 33.7230 31.4340 314° West 424 488 34,000  Level FlightAware
12:24AM 33.7740 31.3710 314° West 424 488 34,000 60 Level FlightAware
12:24AM 33.8150 31.3180 313° West 424 488 34,100 720 Climbing FlightAware
12:25AM 33.8710 31.2490 314° West 421 484 34,900 1,080 Climbing FlightAware
12:25AM 33.9190 31.1890 314° West 423 487 35,500 840 Climbing FlightAware
12:26AM 33.9600 31.1370 314° West 422 486 35,900 420 Climbing FlightAware
12:27AM 34.0070 31.0780 314° West 423 487 36,000 60 Climbing FlightAware
12:27AM 34.0490 31.0230 313° West 423 487 36,000  Level FlightAware
12:28AM 34.1290 30.9250 315° West 424 488 36,000  Level FlightAware
12:29AM 34.1770 30.8650 314° West 425 489 36,000  Level FlightAware
12:29AM 34.2200 30.8120 314° West 426 490 36,000  Level FlightAware
12:30AM 34.2680 30.7530 315° West 427 491 36,000  Level FlightAware
12:30AM 34.3250 30.6810 314° West 424 488 36,000  Level FlightAware
12:31AM 34.3670 30.6300 315° West 425 489 36,000  Level FlightAware
12:31AM 34.4150 30.5700 314° West 431 496 36,000  Level FlightAware
12:32AM 34.4650 30.5100 315° West 425 489 36,000  Level FlightAware
12:33AM 34.5100 30.4530 314° West 426 490 36,000  Level FlightAware
12:33AM 34.5630 30.3860 314° West 426 490 36,000  Level FlightAware
12:34AM 34.6090 30.3290 314° West 425 489 36,000  Level FlightAware
12:35AM 34.6710 30.2500 314° West 425 489 36,000  Level FlightAware
12:35AM 34.7250 30.1820 314° West 425 489 36,000  Level FlightAware
12:36AM 34.7760 30.1160 313° West 425 489 36,000  Level FlightAware
12:36AM 34.8170 30.0630 313° West 425 489 36,000  Level FlightAware
12:37AM 34.8590 30.0080 313° West 425 489 36,000  Level FlightAware
12:38AM 34.9000 29.9540 313° West 425 489 36,000  Level FlightAware
12:38AM 35.0030 29.8310 316° Northwest 430 495 36,000  Level FlightAware
12:39AM 35.0680 29.7480 314° West 430 495 36,000  Level FlightAware
12:40AM 35.1190 29.6830 314° West 430 495 36,000  Level FlightAware
12:40AM 35.1640 29.6250 314° West 430 495 36,000  Level FlightAware
12:41AM 35.2130 29.5620 314° West 430 495 36,000  Level FlightAware
12:42AM 35.2620 29.4990 314° West 430 495 36,000  Level FlightAware
12:42AM 35.3110 29.4360 314° West 430 495 36,000  Level FlightAware
12:43AM 35.3550 29.3790 313° West 430 495 36,000  Level FlightAware
12:43AM 35.4050 29.3140 313° West 431 496 36,000  Level FlightAware
12:44AM 35.4540 29.2520 314° West 430 495 36,000  Level FlightAware
12:45AM 35.5020 29.1890 313° West 430 495 36,000  Level FlightAware
12:45AM 35.5500 29.1270 314° West 430 495 36,000  Level FlightAware
12:46AM 35.5980 29.0630 313° West 429 494 36,000  Level FlightAware
12:46AM 35.6460 29.0020 314° West 429 494 36,000  Level FlightAware
12:47AM 35.6920 28.9420 313° West 428 493 36,000  Level FlightAware
12:47AM 35.7410 28.8780 313° West 428 493 36,000  Level FlightAware
12:48AM 35.7890 28.8140 313° West 428 493 36,000  Level FlightAware
12:50AM 35.9280 28.6300 313° West 427 491 36,000  Level FlightAware
12:51AM 36.0160 28.5150 313° West 430 495 36,000  Level FlightAware
12:51AM 36.0600 28.4560 313° West 432 497 36,000  Level FlightAware
12:52AM 36.1100 28.3890 313° West 433 498 36,000  Level FlightAware
12:53AM 36.1540 28.3320 314° West 433 498 36,000  Level FlightAware
12:53AM 36.2040 28.2640 312° West 433 498 36,000  Level FlightAware
12:54AM 36.2490 28.2040 313° West 435 501 36,000  Level FlightAware
12:54AM 36.2990 28.1370 313° West 435 501 36,000  Level FlightAware
12:55AM 36.3480 28.0730 314° West 437 503 36,000  Level FlightAware
12:56AM 36.4020 28.0100 317° Northwest 439 505 36,000  Level FlightAware
12:56AM 36.4500 27.9550 317° Northwest 439 505 36,000  Level FlightAware
12:57AM 36.5030 27.8930 317° Northwest 439 505 36,000  Level FlightAware
12:57AM 36.5530 27.8360 318° Northwest 438 504 36,000  Level FlightAware
12:58AM 36.6120 27.7670 317° Northwest 437 503 36,000  Level FlightAware
12:58AM 36.6600 27.7120 317° Northwest 437 503 36,000  Level FlightAware
12:59AM 36.7110 27.6520 317° Northwest 436 502 36,000  Level FlightAware
01:00AM 36.7550 27.6000 317° Northwest 436 502 36,000  Level FlightAware
01:00AM 36.8100 27.5360 317° Northwest 435 501 36,000  Level FlightAware
01:01AM 36.8660 27.4700 317° Northwest 435 501 36,000  Level FlightAware
01:01AM 36.9150 27.4120 317° Northwest 435 501 36,000  Level FlightAware
01:02AM 36.9690 27.3500 317° Northwest 435 501 36,000  Level FlightAware
01:03AM 37.0230 27.2860 317° Northwest 433 498 36,000  Level FlightAware
01:03AM 37.0700 27.2300 316° Northwest 432 497 36,000  Level FlightAware
01:04AM 37.1220 27.1680 316° Northwest 432 497 36,000  Level FlightAware
01:04AM 37.1750 27.1050 317° Northwest 431 496 36,000  Level FlightAware
01:05AM 37.2210 27.0510 317° Northwest 431 496 36,000  Level FlightAware
01:05AM 37.2730 26.9880 316° Northwest 430 495 36,000  Level FlightAware
01:06AM 37.3250 26.9260 317° Northwest 430 495 36,000  Level FlightAware
01:07AM 37.3720 26.8710 317° Northwest 431 496 36,000  Level FlightAware
01:07AM 37.4250 26.8100 318° Northwest 433 498 36,000  Level FlightAware
01:08AM 37.4810 26.7490 319° Northwest 433 498 36,000  Level FlightAware
01:08AM 37.5300 26.6960 319° Northwest 433 498 36,000  Level FlightAware
01:09AM 37.5850 26.6370 320° Northwest 433 498 36,000  Level FlightAware
01:10AM 37.6400 26.5780 320° Northwest 433 498 36,000  Level FlightAware
01:10AM 37.6920 26.5220 320° Northwest 433 498 36,000  Level FlightAware
01:11AM 37.7530 26.4550 319° Northwest 432 497 36,000  Level FlightAware
01:11AM 37.8160 26.3860 319° Northwest 431 496 36,000  Level FlightAware
01:12AM 37.8690 26.3280 319° Northwest 432 497 36,000  Level FlightAware
01:13AM 37.9240 26.2680 319° Northwest 433 498 36,000  Level FlightAware
01:13AM 37.9820 26.2040 319° Northwest 433 498 36,000  Level FlightAware
01:14AM 38.0300 26.1510 319° Northwest 433 498 36,000  Level FlightAware
01:14AM 38.0840 26.0910 319° Northwest 433 498 36,000  Level FlightAware
01:15AM 38.1390 26.0310 319° Northwest 433 498 36,000  Level FlightAware
01:16AM 38.1880 25.9770 319° Northwest 433 498 36,000  Level FlightAware
01:16AM 38.2390 25.9200 319° Northwest 432 497 36,000  Level FlightAware
01:17AM 38.2890 25.8700 322° Northwest 434 499 36,000  Level FlightAware
01:17AM 38.3580 25.8050 324° Northwest 436 502 36,000  Level FlightAware
01:18AM 38.4120 25.7660 330° Northwest 437 503 36,000  Level FlightAware
01:18AM 38.4730 25.7210 330° Northwest 436 502 36,000  Level FlightAware
01:19AM 38.5380 25.6730 330° Northwest 434 499 36,000  Level FlightAware
01:20AM 38.6230 25.6100 330° Northwest 433 498 36,000  Level FlightAware
01:20AM 38.6830 25.5660 330° Northwest 433 498 36,000  Level FlightAware
01:21AM 38.7330 25.5280 329° Northwest 433 498 36,000  Level FlightAware
01:22AM 38.7850 25.4870 328° Northwest 433 498 36,000  Level FlightAware
01:22AM 38.8390 25.4460 329° Northwest 433 498 36,000  Level FlightAware
01:23AM 38.8920 25.4050 329° Northwest 433 498 36,000  Level FlightAware
01:23AM 38.9450 25.3640 329° Northwest 433 498 36,000  Level FlightAware
01:24AM 38.9990 25.3230 329° Northwest 433 498 36,000  Level FlightAware
01:25AM 39.0510 25.2820 329° Northwest 433 498 36,000  Level FlightAware
01:25AM 39.1800 25.1950 332° Northwest 432 497 36,000  Level FlightAware
01:26AM 39.2400 25.1490 329° Northwest 431 496 36,000  Level FlightAware
01:26AM 39.2960 25.1060 329° Northwest 431 496 36,000  Level FlightAware
01:27AM 39.3480 25.0660 329° Northwest 431 496 36,000  Level FlightAware
01:28AM 39.4000 25.0250 329° Northwest 431 496 36,000  Level FlightAware
01:28AM 39.4530 24.9840 329° Northwest 431 496 36,000  Level FlightAware
01:29AM 39.5050 24.9430 329° Northwest 431 496 36,000  Level FlightAware
01:29AM 39.5590 24.9020 330° Northwest 431 496 36,000  Level FlightAware
01:30AM 39.6110 24.8610 329° Northwest 431 496 36,000  Level FlightAware
01:31AM 39.6630 24.8200 329° Northwest 431 496 36,000  Level FlightAware
01:31AM 39.8070 24.7170 331° Northwest 438 504 36,000  Level FlightAware
01:32AM 39.8620 24.6760 330° Northwest 438 504 36,000  Level FlightAware
01:33AM 39.9370 24.6180 329° Northwest 439 505 36,000  Level FlightAware
01:33AM 39.9840 24.5810 329° Northwest 439 505 36,000  Level FlightAware
01:34AM 40.0440 24.5350 330° Northwest 440 506 36,000  Level FlightAware
01:34AM 40.1090 24.4850 330° Northwest 439 505 36,000  Level FlightAware
01:35AM 40.1710 24.4360 329° Northwest 439 505 36,000  Level FlightAware
01:35AM 40.2330 24.3870 329° Northwest 437 503 36,000  Level FlightAware
01:36AM 40.3030 24.3320 329° Northwest 437 503 36,000  Level FlightAware
01:37AM 40.3540 24.2920 329° Northwest 436 502 36,000  Level FlightAware
01:37AM 40.4160 24.2440 329° Northwest 435 501 36,000  Level FlightAware
01:38AM 40.4750 24.1980 329° Northwest 435 501 36,000  Level FlightAware
01:38AM 40.5320 24.1530 329° Northwest 435 501 36,000  Level FlightAware
01:39AM 40.5970 24.1020 329° Northwest 434 499 36,000  Level FlightAware
01:40AM 40.6650 24.0480 329° Northwest 433 498 36,000  Level FlightAware
01:40AM 40.7180 24.0050 328° Northwest 432 497 36,000  Level FlightAware
01:41AM 40.7770 23.9590 329° Northwest 433 498 36,000  Level FlightAware
01:41AM 40.8340 23.9140 329° Northwest 434 499 36,000  Level FlightAware
01:42AM 40.8960 23.8640 329° Northwest 433 498 36,000  Level FlightAware
01:42AM 40.9580 23.8140 329° Northwest 433 498 36,000  Level FlightAware
01:43AM 41.0140 23.7700 329° Northwest 433 498 36,000  Level FlightAware
01:44AM 41.0760 23.7200 329° Northwest 433 498 36,000  Level FlightAware
01:44AM 41.1460 23.6630 328° Northwest 430 495 36,000  Level FlightAware
01:45AM 41.1980 23.6250 331° Northwest 432 497 36,000  Level FlightAware
01:45AM 41.2580 23.5840 333° Northwest 432 497 36,000  Level FlightAware
01:46AM 41.3230 23.5410 334° Northwest 433 498 36,000  Level FlightAware
01:46AM 41.3790 23.5040 334° Northwest 435 501 36,000  Level FlightAware
01:47AM 41.4460 23.4590 333° Northwest 435 501 36,000  Level FlightAware
01:48AM 41.5110 23.4150 333° Northwest 435 501 36,000  Level FlightAware
01:48AM 41.5840 23.3660 333° Northwest 436 502 36,000  Level FlightAware
01:49AM 41.6360 23.3310 333° Northwest 436 502 36,000  Level FlightAware
01:49AM 41.7000 23.2870 333° Northwest 438 504 36,000 120 Level FlightAware
01:50AM 41.7630 23.2440 333° Northwest 440 506 36,200 600 Climbing FlightAware
01:51AM 41.8370 23.1940 333° Northwest 439 505 36,800 900 Climbing FlightAware
01:51AM 41.8910 23.1570 333° Northwest 437 503 37,300 900 Climbing FlightAware
01:52AM 41.9530 23.1140 333° Northwest 434 499 37,800 540 Climbing FlightAware
01:52AM 42.0210 23.0680 333° Northwest 435 501 38,000 120 Climbing FlightAware
01:53AM 42.0960 23.0160 333° Northwest 436 502 38,000  Level FlightAware
01:54AM 42.1590 22.9730 333° Northwest 438 504 38,000  Level FlightAware
01:54AM 42.2230 22.9290 333° Northwest 438 504 38,000  Level FlightAware
01:55AM 42.2840 22.8860 332° Northwest 437 503 38,000  Level FlightAware
01:55AM 42.3490 22.8420 333° Northwest 436 502 38,000  Level FlightAware
01:56AM 42.4120 22.7980 333° Northwest 435 501 38,000  Level FlightAware
01:57AM 42.4730 22.7550 333° Northwest 435 501 38,000  Level FlightAware
01:57AM 42.5360 22.7110 333° Northwest 432 497 38,000  Level FlightAware
01:58AM 42.6080 22.6610 333° Northwest 432 497 38,000  Level FlightAware
01:58AM 42.6700 22.6180 333° Northwest 430 495 38,000  Level FlightAware
01:59AM 42.7320 22.5740 332° Northwest 429 494 38,000  Level FlightAware
02:00AM 42.7920 22.5320 333° Northwest 432 497 38,000  Level FlightAware
02:00AM 42.8530 22.4850 331° Northwest 428 493 38,000  Level FlightAware
02:01AM 42.9120 22.4310 326° Northwest 428 493 38,000  Level FlightAware
02:01AM 42.9700 22.3780 326° Northwest 428 493 38,000  Level FlightAware
02:02AM 43.0200 22.3320 326° Northwest 430 495 38,000  Level FlightAware
02:03AM 43.0920 22.2650 326° Northwest 431 496 38,000  Level FlightAware
02:03AM 43.1450 22.2160 326° Northwest 431 496 38,000  Level FlightAware
02:04AM 43.2040 22.1610 326° Northwest 432 497 38,000  Level FlightAware
02:04AM 43.2620 22.1070 326° Northwest 434 499 38,000  Level FlightAware
02:05AM 43.3230 22.0500 326° Northwest 438 504 38,000  Level FlightAware
02:05AM 43.3780 21.9990 326° Northwest 442 509 38,000  Level FlightAware
02:06AM 43.4380 21.9430 326° Northwest 446 513 38,000  Level FlightAware
02:07AM 43.5000 21.8850 326° Northwest 448 516 38,000  Level FlightAware
02:07AM 43.5560 21.8320 326° Northwest 449 517 38,000  Level FlightAware
02:08AM 43.6180 21.7740 326° Northwest 450 518 38,000  Level FlightAware
02:08AM 43.6780 21.7160 325° Northwest 451 519 38,000  Level FlightAware
02:09AM 43.7380 21.6600 326° Northwest 451 519 38,000  Level FlightAware
02:10AM 43.7990 21.6020 326° Northwest 452 520 38,000  Level FlightAware
02:10AM 43.8610 21.5420 325° Northwest 452 520 38,000  Level FlightAware
02:11AM 43.9450 21.4630 326° Northwest 453 521 38,000  Level FlightAware
02:11AM 44.0050 21.4050 325° Northwest 454 522 38,000  Level FlightAware
02:12AM 44.0640 21.3480 325° Northwest 453 521 38,000  Level FlightAware
02:13AM 44.1200 21.2940 325° Northwest 453 521 38,000  Level FlightAware
02:13AM 44.1850 21.2320 326° Northwest 453 521 38,000  Level FlightAware
02:14AM 44.2450 21.1740 325° Northwest 453 521 38,000  Level FlightAware
02:14AM 44.3000 21.1200 325° Northwest 453 521 38,000  Level FlightAware
02:15AM 44.3630 21.0590 325° Northwest 453 521 38,000  Level FlightAware
02:16AM 44.4260 20.9970 325° Northwest 454 522 38,000  Level FlightAware
02:16AM 44.4890 20.9350 325° Northwest 455 524 38,000  Level FlightAware
02:17AM 44.5440 20.8820 326° Northwest 455 524 38,000  Level FlightAware
02:17AM 44.6070 20.8200 325° Northwest 457 526 38,000  Level FlightAware
02:18AM 44.6690 20.7590 325° Northwest 456 525 38,000  Level FlightAware
02:18AM 44.7290 20.7000 325° Northwest 456 525 38,000  Level FlightAware
02:19AM 44.7890 20.6400 325° Northwest 455 524 38,000  Level FlightAware
02:20AM 44.8430 20.5860 325° Northwest 453 521 38,000  Level FlightAware
02:20AM 44.9130 20.5170 325° Northwest 452 520 38,000  Level FlightAware
02:21AM 44.9660 20.4630 324° Northwest 452 520 38,000  Level FlightAware
02:21AM 45.0280 20.4010 325° Northwest 452 520 38,000  Level FlightAware
02:22AM 45.0900 20.3390 325° Northwest 452 520 38,000  Level FlightAware
02:23AM 45.1450 20.2840 325° Northwest 451 519 38,000  Level FlightAware
02:23AM 45.1940 20.2350 325° Northwest 450 518 38,000  Level FlightAware
02:24AM 45.2630 20.1640 324° Northwest 450 518 38,000  Level FlightAware
02:24AM 45.3270 20.0990 324° Northwest 449 517 38,000  Level FlightAware
02:25AM 45.3730 20.0520 324° Northwest 448 516 38,000  Level FlightAware
02:25AM 45.4370 19.9880 325° Northwest 442 509 38,000  Level FlightAware
02:26AM 45.4960 19.9270 324° Northwest 442 509 38,000  Level FlightAware
02:27AM 45.5550 19.8670 325° Northwest 442 509 38,000  Level FlightAware
02:27AM 45.6080 19.8120 324° Northwest 442 509 38,000  Level FlightAware
02:28AM 45.6650 19.7530 324° Northwest 444 511 38,000  Level FlightAware
02:29AM 45.7470 19.6680 324° Northwest 450 518 38,000  Level FlightAware
02:29AM 45.7940 19.6210 325° Northwest 451 519 38,000  Level FlightAware
02:30AM 45.8610 19.5500 324° Northwest 444 511 38,000  Level FlightAware
02:30AM 45.9260 19.4830 324° Northwest 444 511 38,000  Level FlightAware
02:31AM 45.9820 19.4250 324° Northwest 450 518 38,000  Level FlightAware
02:31AM 46.0420 19.3610 323° Northwest 449 517 38,000  Level FlightAware
02:32AM 46.0900 19.3060 322° Northwest 439 505 38,000  Level FlightAware
02:33AM 46.1560 19.2270 320° Northwest 439 505 38,000  Level FlightAware
02:33AM 46.2230 19.1450 320° Northwest 446 513 38,000  Level FlightAware
02:34AM 46.2780 19.0790 320° Northwest 447 514 38,000  Level FlightAware
02:35AM 46.3500 18.9900 320° Northwest 447 514 38,000  Level FlightAware
02:35AM 46.4050 18.9230 320° Northwest 447 514 38,000  Level FlightAware
02:36AM 46.4620 18.8540 320° Northwest 448 516 38,000  Level FlightAware
02:36AM 46.5170 18.7860 320° Northwest 447 514 38,000  Level FlightAware
02:37AM 46.5720 18.7190 320° Northwest 447 514 38,000  Level FlightAware
02:38AM 46.6240 18.6550 320° Northwest 442 509 38,000  Level FlightAware
02:38AM 46.6800 18.5850 319° Northwest 433 498 38,000  Level FlightAware
02:39AM 46.7270 18.5260 319° Northwest 432 497 38,000  Level FlightAware
02:39AM 46.7870 18.4520 320° Northwest 432 497 38,000  Level FlightAware
02:40AM 46.8500 18.3730 319° Northwest 430 495 38,000  Level FlightAware
02:41AM 46.9050 18.3040 319° Northwest 428 493 38,000  Level FlightAware
02:41AM 46.9580 18.2370 319° Northwest 427 491 38,000  Level FlightAware
02:42AM 47.0100 18.1720 320° Northwest 427 491 38,000  Level FlightAware
02:42AM 47.0650 18.1030 319° Northwest 427 491 38,000  Level FlightAware
02:43AM 47.1170 18.0360 319° Northwest 426 490 38,000  Level FlightAware
02:44AM 47.1700 17.9690 319° Northwest 426 490 38,000  Level FlightAware
02:44AM 47.2210 17.9040 319° Northwest 431 496 38,000  Level FlightAware
02:45AM 47.2730 17.8370 319° Northwest 432 497 38,000  Level FlightAware
02:45AM 47.3290 17.7660 319° Northwest 435 501 38,000  Level FlightAware
02:46AM 47.3820 17.6980 319° Northwest 435 501 38,000  Level FlightAware
02:46AM 47.4350 17.6300 319° Northwest 436 502 38,000  Level FlightAware
02:47AM 47.4880 17.5620 319° Northwest 437 503 38,000  Level FlightAware
02:48AM 47.5410 17.4930 319° Northwest 438 504 38,000  Level FlightAware
02:48AM 47.5940 17.4240 319° Northwest 439 505 38,000  Level FlightAware
02:49AM 47.6480 17.3550 319° Northwest 440 506 38,000  Level FlightAware
02:49AM 47.7030 17.2880 321° Northwest 444 511 38,000  Level FlightAware
02:50AM 47.7590 17.2220 322° Northwest 443 510 38,000  Level FlightAware
02:51AM 47.8140 17.1560 321° Northwest 442 509 38,000  Level FlightAware
02:51AM 47.8690 17.0890 321° Northwest 443 510 38,000  Level FlightAware
02:52AM 47.9250 17.0210 321° Northwest 442 509 38,000  Level FlightAware
02:52AM 47.9790 16.9550 321° Northwest 438 504 38,000  Level FlightAware
02:53AM 48.0330 16.8880 320° Northwest 434 499 38,000  Level FlightAware
02:53AM 48.0870 16.8220 321° Northwest 434 499 38,000  Level FlightAware
02:54AM 48.1410 16.7550 320° Northwest 434 499 38,000  Level FlightAware
02:55AM 48.1910 16.6940 321° Northwest 433 498 38,000  Level FlightAware
02:55AM 48.2500 16.6220 321° Northwest 432 497 38,000  Level FlightAware
02:56AM 48.3030 16.5550 320° Northwest 431 496 38,000  Level FlightAware
02:56AM 48.3560 16.4900 321° Northwest 430 495 38,000  Level FlightAware
02:57AM 48.4090 16.4230 320° Northwest 429 494 38,000  Level FlightAware
02:58AM 48.4620 16.3570 320° Northwest 427 491 38,000  Level FlightAware
02:58AM 48.5150 16.2910 320° Northwest 425 489 38,000  Level FlightAware
02:59AM 48.5670 16.2260 320° Northwest 423 487 38,000  Level FlightAware
02:59AM 48.6190 16.1590 320° Northwest 422 486 38,000  Level FlightAware
03:00AM 48.6448 16.1269 321° Northwest 420 483 38,000  Level FlightAware ADS-B (ETSE)
03:00AM 48.6936 16.0650 320° Northwest 421 484 38,000  Level FlightAware ADS-B (ETSE)
03:01AM 48.7790 15.9570 320° Northwest 425 489 38,000  Level FlightAware
03:02AM 48.8204 15.9043 320° Northwest 423 487 38,000  Level FlightAware ADS-B (ETSE)
03:02AM 48.8820 15.8400 326° Northwest 439 505 38,000  Level FlightAware
03:03AM 48.9420 15.8030 338° Northwest 443 510 38,000  Level FlightAware
03:03AM 49.0150 15.7610 339° North 441 507 38,000  Level FlightAware
03:04AM 49.0800 15.7250 340° North 440 506 38,000  Level FlightAware
03:04AM 48.6820 16.0797 149° Southeast 440 506 38,000  Level FlightAware ADS-B (LKPR / PRG)
03:05AM 49.1629 15.6770 331° Northwest 439 505 38,000  Level FlightAware ADS-B (LKPR / PRG)
03:05AM 49.2216 15.6434 340° North 437 503 38,000  Level FlightAware ADS-B (LKPR / PRG)
03:06AM 49.2820 15.6090 340° North 435 501 38,000  Level FlightAware
03:06AM 49.2995 15.5985 339° North 435 501 38,000  Level FlightAware ADS-B (LKPR / PRG)
03:06AM 49.3689 15.5583 339° North 434 499 38,000  Level FlightAware ADS-B (LKPR / PRG)
03:07AM 49.4273 15.5245 339° North 433 498 38,000  Level FlightAware ADS-B (LKPR / PRG)
03:08AM 49.5205 15.4706 339° North 431 496 38,000  Level FlightAware ADS-B (LKPR / PRG)
03:09AM 49.6119 15.4173 339° North 430 495 38,000  Level FlightAware ADS-B (LKPR / PRG)
03:09AM 49.6703 15.3830 339° North 432 497 38,000  Level FlightAware ADS-B (LKPR / PRG)
03:10AM 49.7257 15.3505 339° North 435 501 38,000  Level FlightAware ADS-B (LKPR / PRG)
03:10AM 49.8010 15.3060 339° North 438 504 38,000  Level FlightAware
03:10AM 49.8038 15.3047 343° North 438 504 38,000  Level FlightAware ADS-B (LKPR / PRG)
03:11AM 49.8793 15.2605 339° North 440 506 38,000  Level FlightAware ADS-B (LKPR / PRG)
03:12AM 49.9556 15.2154 339° North 439 505 38,000  Level FlightAware ADS-B (LKPR / PRG)
03:12AM 50.0109 15.1826 339° North 439 505 38,000  Level FlightAware ADS-B (LKPR / PRG)
03:13AM 50.0700 15.1480 339° North 439 505 38,000  Level FlightAware
03:13AM 50.0779 15.1427 337° Northwest 439 505 38,000  Level FlightAware ADS-B (LKPR / PRG)
03:13AM 50.1330 15.1090 339° North 441 507 38,000  Level FlightAware
03:14AM 50.1940 15.0730 339° North 442 509 38,000  Level FlightAware
03:14AM 50.2670 15.0290 339° North 442 509 38,000  Level FlightAware
03:15AM 50.2812 15.0208 340° North 443 510 38,000  Level FlightAware ADS-B (LKPR / PRG)
03:15AM 50.3446 14.9827 339° North 443 510 38,000  Level FlightAware ADS-B (LKPR / PRG)
03:16AM 50.4275 14.9327 339° North 439 505 38,000  Level FlightAware ADS-B (LKPR / PRG)
03:16AM 50.5047 14.8860 339° North 435 501 38,000  Level FlightAware ADS-B (LKPR / PRG)
03:17AM 50.5563 14.8548 339° North 435 501 38,000 -480 Level FlightAware ADS-B (LKPR / PRG)
03:18AM 50.6360 14.8060 339° North 436 502 37,500 -900 Descending FlightAware ADS-B (LKPR / PRG)
03:18AM 50.6928 14.7710 339° North 437 503 37,000 -960 Descending FlightAware ADS-B (LKPR / PRG)
03:19AM 50.7664 14.7261 339° North 428 493 36,400 -840 Descending FlightAware ADS-B (LKPR / PRG)
03:19AM 50.8285 14.6880 339° North 416 479 36,000 -300 Descending FlightAware ADS-B (LKPR / PRG)
03:20AM 50.9180 14.6330 339° North 411 473 36,000  Level FlightAware
03:21AM 50.9860 14.6030 344° North 415 478 36,000 -720 Level FlightAware
03:21AM 51.0470 14.5830 348° North 421 484 35,200 -2,040 Descending FlightAware
03:22AM 51.1080 14.5640 349° North 427 491 33,800 -2,640 Descending FlightAware
03:23AM 51.1840 14.5500 353° North 427 491 32,100 -2,880 Descending FlightAware
03:23AM 51.2570 14.5390 355° North 429 494 30,300 -2,760 Descending FlightAware
03:24AM 51.3280 14.5280 354° North 422 486 28,800 -2,400 Descending FlightAware
03:24AM 51.3890 14.5190 355° North 416 479 27,600 -2,280 Descending FlightAware
03:25AM 51.4590 14.5080 354° North 410 472 26,200 -2,280 Descending FlightAware
03:26AM 51.5310 14.4970 355° North 404 465 24,700 -2,340 Descending FlightAware
03:26AM 51.6050 14.4850 354° North 396 456 23,200 -2,340 Descending FlightAware
03:26AM 51.6240 14.4760 344° North 393 452 22,800 -2,040 Descending FlightAware
03:26AM 51.6340 14.4680 334° Northwest 389 448 22,600 -1,800 Descending FlightAware
03:27AM 51.6500 14.4500 325° Northwest 386 444 22,200 -2,040 Descending FlightAware
03:27AM 51.6630 14.4300 316° Northwest 383 441 21,900 -2,280 Descending FlightAware
03:27AM 51.6980 14.3470 304° West 379 436 20,600 -2,280 Descending FlightAware
03:28AM 51.7340 14.2600 304° West 378 435 19,100 -2,520 Descending FlightAware
03:29AM 51.7650 14.1840 303° West 382 440 17,700 -2,340 Descending FlightAware
03:29AM 51.7990 14.1020 304° West 378 435 16,500 -2,100 Descending FlightAware
03:30AM 51.8350 14.0160 304° West 374 430 15,200 -2,040 Descending FlightAware
03:31AM 51.8770 13.9130 303° West 364 419 13,800 -1,980 Descending FlightAware
03:31AM 51.9150 13.8200 304° West 361 415 12,400 -2,040 Descending FlightAware
03:32AM 51.9430 13.7530 304° West 358 412 11,400 -1,260 Descending FlightAware
03:32AM 51.9760 13.6700 303° West 331 381 11,000 -1,260 Descending FlightAware
03:33AM 52.0050 13.5990 304° West 330 380 9,900 -1,860 Descending FlightAware
03:33AM 52.0160 13.5720 304° West 330 380 9,500 -1,320 Descending FlightAware
03:33AM 52.0360 13.5360 312° West 316 364 9,200 -1,020 Descending FlightAware
03:34AM 52.0590 13.4980 315° West 304 350 8,800 -1,380 Descending FlightAware
03:34AM 52.0800 13.4630 314° West 296 341 8,200 -1,500 Descending FlightAware
03:34AM 52.0960 13.4380 316° Northwest 294 338 7,900 -1,380 Descending FlightAware
03:35AM 52.1150 13.4080 316° Northwest 294 338 7,400 -1,440 Descending FlightAware
03:35AM 52.1350 13.3760 316° Northwest 292 336 7,000 -1,380 Descending FlightAware
03:35AM 52.1490 13.3530 315° West 291 335 6,600 -1,320 Descending FlightAware
03:36AM 52.1660 13.3260 316° Northwest 289 333 6,200 -1,380 Descending FlightAware
03:36AM 52.1860 13.2920 314° West 283 326 5,700 -1,500 Descending FlightAware
03:36AM 52.2060 13.2580 314° West 275 316 5,200 -1,380 Descending FlightAware
03:37AM 52.2280 13.2230 316° Northwest 272 313 4,700 -1,080 Descending FlightAware
03:37AM 52.2410 13.2000 313° West 264 304 4,500 -600 Descending FlightAware
03:37AM 52.2550 13.1790 317° Northwest 250 288 4,400 -300 Descending FlightAware
03:37AM 52.2600 13.1750 334° Northwest 244 281 4,400 -420 Level FlightAware
03:38AM 52.2690 13.1710 345° North 227 261 4,300 -960 Descending FlightAware
03:38AM 52.2930 13.1910 27° Northeast 181 208 3,800 -1,020 Descending FlightAware
03:38AM 52.2990 13.2040 53° Northeast 176 203 3,600 -840 Descending FlightAware
03:39AM 52.3070 13.2310 64° Northeast 165 190 3,300 -960 Descending FlightAware
03:39AM 52.3120 13.2500 67° East 160 184 3,000 -960 Descending FlightAware
03:39AM 52.3170 13.2740 71° East 154 177 2,700 -780 Descending FlightAware
03:40AM 52.3200 13.2860 68° East 151 174 2,600 -660 Descending FlightAware
03:40AM 52.3270 13.3140 68° East 143 165 2,300 -840 Descending FlightAware
03:40AM 52.3290 13.3240 72° East 138 159 2,100 -960 Descending FlightAware
03:41AM 52.3340 13.3440 68° East 133 153 1,800 -780 Descending FlightAware
03:41AM 52.3370 13.3550 66° East 131 151 1,700 -600 Descending FlightAware
03:41AM 52.3410 13.3730 70° East 130 150 1,500 -660 Descending FlightAware
03:41AM 52.3450 13.3890 68° East 131 151 1,300 -660 Descending FlightAware
03:42AM 52.3490 13.4080 71° East 134 154 1,100 -840 Descending FlightAware
03:42AM 52.3540 13.4250 64° Northeast 138 159 800 -900 Descending FlightAware
03:42AM 52.3570 13.4410 73° East 139 160 600 -720 Descending FlightAware
03:43AM 52.3630 13.4630 66° East 140 161 300 -420 Descending FlightAware
03:43AM 52.3680 13.4840 69° East 140 161 300  Level FlightAware
03:46AM 52.3800 13.5225 63° Northeast  Level Estimated
03:47AM 52.3800 13.5225 North  Level Estimated
03:48AM 52.3800 13.5225 North  Level Estimated
03:49AM 52.3800 13.5225 North  Level Estimated
03:50AM 52.3800 13.5225 North  Level Estimated
03:51AM 52.3800 13.5225 North  Level Estimated
03:52AM 52.3800 13.5225 North  Level Estimated
03:53AM 52.3800 13.5225 North  Level Estimated
03:54AM 52.3800 13.5225 North  Level Estimated